Terminal Aerodrome Forecast
Issued by NWS

Home | Current Version | Previous Version | Text Only | Print | Product List | Glossary On
Versions: 1 2 3 4 5 6 7 8 9 10 11 12 13 14 15 16 17 18 19 20
000
FTUS46 KSGX 211700
TAFONT
TAF
KONT 211728Z 2118/2224 24005KT P6SM SCT150
     FM212100 25011KT P6SM SCT090 SCT150
     FM220400 24005KT P6SM SCT150
     FM222100 25011KT P6SM SCT150=

USA.gov is the U.S. government's official web portal to all federal, state and local government web resources and services.